createdAt,value
2019-05-19T00:02:06.875Z,22.27
2019-05-19T00:04:34.063Z,23.75
2019-05-19T00:07:01.539Z,25.52
2019-05-19T00:09:28.552Z,27.25
2019-05-19T00:11:55.549Z,25.85
2019-05-19T00:14:23.849Z,26.97
2019-05-19T00:16:50.932Z,25.37
2019-05-19T00:19:26.431Z,25.65
2019-05-19T00:21:50.280Z,24.95
2019-05-19T00:24:17.882Z,25.45
2019-05-19T00:26:45.127Z,30.45
2019-05-19T00:29:12.043Z,35.78
2019-05-19T00:31:39.075Z,37.42
2019-05-19T00:34:06.184Z,37.48
2019-05-19T00:36:33.789Z,36.80
2019-05-19T00:39:00.927Z,28.17
2019-05-19T00:41:29.253Z,25.60
2019-05-19T00:43:56.370Z,26.10
2019-05-19T00:46:24.270Z,23.65
2019-05-19T00:48:51.472Z,23.42
2019-05-19T00:51:19.738Z,22.25
2019-05-19T00:53:47.151Z,21.20
2019-05-19T00:56:15.566Z,21.05
2019-05-19T00:58:45.374Z,22.37
2019-05-19T01:01:12.790Z,20.25
2019-05-19T01:03:40.043Z,18.75
2019-05-19T01:06:07.667Z,21.15
2019-05-19T01:08:35.116Z,19.52
2019-05-19T01:11:02.842Z,20.27
2019-05-19T01:13:30.331Z,20.85
2019-05-19T01:15:57.947Z,20.50
2019-05-19T01:18:25.135Z,21.17
2019-05-19T01:20:52.342Z,22.35
2019-05-19T01:23:19.708Z,26.30
2019-05-19T01:25:47.452Z,26.15
2019-05-19T01:28:14.855Z,26.42
2019-05-19T01:30:42.931Z,26.07
2019-05-19T01:33:10.339Z,22.10
2019-05-19T01:35:38.151Z,18.20
2019-05-19T01:38:05.369Z,18.75
2019-05-19T01:40:32.656Z,18.17
2019-05-19T01:43:00.063Z,17.27
2019-05-19T01:45:28.286Z,16.60
2019-05-19T01:47:55.701Z,14.38
2019-05-19T01:50:23.200Z,14.90
2019-05-19T01:52:50.908Z,14.90
2019-05-19T01:55:19.068Z,16.55
2019-05-19T01:57:46.198Z,16.50
2019-05-19T02:00:14.175Z,15.78
2019-05-19T02:02:41.262Z,15.13
2019-05-19T02:05:08.898Z,14.20
2019-05-19T02:07:36.333Z,14.58
2019-05-19T02:10:08.807Z,15.93
2019-05-19T02:12:38.367Z,16.05
2019-05-19T02:15:06.344Z,17.37
2019-05-19T02:17:33.925Z,19.62
2019-05-19T02:20:01.100Z,20.23
2019-05-19T02:22:28.446Z,21.00
2019-05-19T02:24:55.456Z,19.60
2019-05-19T02:27:22.996Z,20.00
2019-05-19T02:29:50.375Z,19.07
2019-05-19T02:32:17.628Z,19.90
2019-05-19T02:34:45.111Z,20.48
2019-05-19T02:37:12.362Z,18.67
2019-05-19T02:39:39.821Z,18.15
2019-05-19T02:42:08.163Z,18.07
2019-05-19T02:44:57.576Z,17.42
2019-05-19T02:47:26.128Z,14.13
2019-05-19T02:49:54.717Z,15.98
2019-05-19T02:52:22.447Z,14.90
2019-05-19T02:54:50.637Z,13.90
2019-05-19T02:57:18.273Z,13.48
2019-05-19T02:59:45.902Z,14.43
2019-05-19T03:02:14.579Z,14.60
2019-05-19T03:04:41.844Z,14.53
2019-05-19T03:07:09.596Z,15.72
2019-05-19T03:09:37.196Z,14.10
2019-05-19T03:12:04.257Z,13.85
2019-05-19T03:14:31.968Z,11.35
2019-05-19T03:16:59.092Z,10.78
2019-05-19T03:19:26.138Z,11.03
2019-05-19T03:21:54.304Z,10.95
2019-05-19T03:24:21.436Z,12.73
2019-05-19T03:26:50.040Z,14.20
2019-05-19T03:29:19.955Z,15.25
2019-05-19T03:31:47.325Z,14.70
2019-05-19T03:34:15.697Z,14.33
2019-05-19T03:36:42.734Z,12.13
2019-05-19T03:39:10.242Z,12.37
2019-05-19T03:41:37.582Z,11.80
2019-05-19T03:44:04.880Z,11.55
2019-05-19T03:46:32.006Z,11.78
2019-05-19T03:48:59.052Z,11.73
2019-05-19T03:51:30.671Z,12.88
2019-05-19T03:53:56.900Z,13.95
2019-05-19T03:56:23.912Z,13.70
2019-05-19T03:58:51.419Z,12.80
2019-05-19T04:01:18.560Z,11.88
2019-05-19T04:03:45.820Z,11.97
2019-05-19T04:06:13.238Z,12.68
2019-05-19T04:08:40.728Z,14.33
2019-05-19T04:11:07.931Z,13.55
2019-05-19T04:13:35.134Z,13.05
2019-05-19T04:16:02.423Z,14.00
2019-05-19T04:18:29.587Z,13.70
2019-05-19T04:20:56.897Z,12.95
2019-05-19T04:23:23.835Z,12.40
2019-05-19T04:25:51.234Z,11.57
2019-05-19T04:28:18.356Z,11.97
2019-05-19T04:30:45.531Z,11.85
2019-05-19T04:33:12.577Z,12.73
2019-05-19T04:35:39.488Z,12.88
2019-05-19T04:38:06.747Z,13.80
2019-05-19T04:40:34.876Z,13.95
2019-05-19T04:43:02.073Z,12.37
2019-05-19T04:45:28.969Z,13.43
2019-05-19T04:47:55.891Z,12.85
2019-05-19T04:50:23.148Z,11.85
2019-05-19T04:52:50.560Z,12.53
2019-05-19T04:55:17.734Z,13.78
2019-05-19T04:57:44.751Z,18.62
2019-05-19T05:00:12.810Z,19.02
2019-05-19T05:02:39.830Z,17.07
2019-05-19T05:05:07.244Z,16.93
2019-05-19T05:07:34.354Z,15.10
2019-05-19T05:10:01.568Z,11.85
2019-05-19T05:12:29.601Z,13.43
2019-05-19T05:14:57.382Z,13.75
2019-05-19T05:17:24.599Z,12.60
2019-05-19T05:19:51.846Z,13.10
2019-05-19T05:22:21.961Z,10.45
2019-05-19T05:24:47.992Z,9.78
2019-05-19T05:27:14.989Z,10.55
2019-05-19T05:29:42.371Z,9.93
2019-05-19T05:32:09.661Z,9.55
2019-05-19T05:34:36.671Z,7.47
2019-05-19T05:37:03.732Z,8.03
2019-05-19T05:39:30.749Z,7.83
2019-05-19T05:41:57.659Z,7.60
2019-05-19T05:44:24.687Z,7.47
2019-05-19T05:46:54.106Z,7.65
2019-05-19T05:49:21.718Z,7.70
2019-05-19T05:51:49.041Z,7.17
2019-05-19T05:54:16.317Z,7.03
2019-05-19T05:56:43.343Z,6.83
2019-05-19T05:59:10.493Z,6.75
2019-05-19T06:01:37.380Z,6.95
2019-05-19T06:04:04.897Z,7.47
2019-05-19T06:06:32.420Z,7.87
2019-05-19T06:08:59.567Z,8.63
2019-05-19T06:11:26.567Z,6.97
2019-05-19T06:13:53.528Z,7.58
2019-05-19T06:16:20.419Z,7.30
2019-05-19T06:18:47.688Z,7.40
2019-05-19T06:21:14.699Z,7.30
2019-05-19T06:23:42.072Z,7.50
2019-05-19T06:26:09.080Z,7.33
2019-05-19T06:28:36.026Z,7.20
2019-05-19T06:31:04.181Z,7.85
2019-05-19T06:33:31.098Z,7.97
2019-05-19T06:35:58.508Z,7.45
2019-05-19T06:38:25.535Z,6.80
2019-05-19T06:40:53.029Z,7.05
2019-05-19T06:43:20.027Z,6.78
2019-05-19T06:45:47.022Z,6.53
2019-05-19T06:48:14.343Z,6.78
2019-05-19T06:50:41.556Z,7.20
2019-05-19T06:53:13.905Z,6.67
2019-05-19T06:55:40.050Z,6.83
2019-05-19T06:58:07.583Z,6.80
2019-05-19T07:00:34.866Z,6.40
2019-05-19T07:03:02.097Z,5.55
2019-05-19T07:05:29.197Z,6.22
2019-05-19T07:07:56.395Z,6.28
2019-05-19T07:10:23.445Z,6.42
2019-05-19T07:12:50.591Z,6.35
2019-05-19T07:15:20.024Z,6.42
2019-05-19T07:17:47.239Z,6.30
2019-05-19T07:20:16.359Z,6.53
2019-05-19T07:22:43.713Z,6.17
2019-05-19T07:25:11.256Z,6.17
2019-05-19T07:27:38.283Z,5.67
2019-05-19T07:30:06.264Z,5.53
2019-05-19T07:32:33.969Z,5.70
2019-05-19T07:35:01.411Z,5.72
2019-05-19T07:37:29.648Z,6.20
2019-05-19T07:39:56.691Z,6.65
2019-05-19T07:42:23.616Z,6.78
2019-05-19T07:44:50.595Z,7.30
2019-05-19T07:47:17.751Z,6.78
2019-05-19T07:49:44.851Z,6.25
2019-05-19T07:52:12.146Z,6.28
2019-05-19T07:54:39.151Z,7.10
2019-05-19T07:57:06.552Z,7.30
2019-05-19T07:59:33.566Z,7.53
2019-05-19T08:02:00.816Z,6.70
2019-05-19T08:04:27.715Z,6.70
2019-05-19T08:06:55.034Z,6.50
2019-05-19T08:09:22.136Z,6.80
2019-05-19T08:11:49.650Z,6.55
2019-05-19T08:14:16.747Z,6.55
2019-05-19T08:16:43.741Z,6.08
2019-05-19T08:19:10.731Z,6.15
2019-05-19T08:21:38.110Z,5.70
2019-05-19T08:24:05.170Z,5.78
2019-05-19T08:26:32.405Z,6.08
2019-05-19T08:29:00.010Z,5.58
2019-05-19T08:31:27.100Z,5.60
2019-05-19T08:33:54.237Z,6.78
2019-05-19T08:36:21.181Z,6.10
2019-05-19T08:38:48.307Z,6.00
2019-05-19T08:41:15.607Z,5.45
2019-05-19T08:43:42.646Z,5.75
2019-05-19T08:46:09.860Z,5.40
2019-05-19T08:48:37.180Z,5.65
2019-05-19T08:51:04.221Z,4.30
2019-05-19T08:53:31.377Z,5.22
2019-05-19T08:55:58.237Z,4.25
2019-05-19T08:58:25.228Z,3.70
2019-05-19T09:00:52.435Z,4.12
2019-05-19T09:03:19.458Z,4.17
2019-05-19T09:05:48.001Z,3.95
2019-05-19T09:08:15.183Z,3.98
2019-05-19T09:10:42.949Z,3.80
2019-05-19T09:13:10.300Z,3.70
2019-05-19T09:15:38.286Z,3.20
2019-05-19T09:18:05.585Z,2.55
2019-05-19T09:20:35.534Z,5.05
2019-05-19T09:23:02.673Z,3.87
2019-05-19T09:25:29.564Z,3.40
2019-05-19T09:27:56.993Z,3.30
2019-05-19T09:30:24.404Z,2.95
2019-05-19T09:32:51.327Z,2.95
2019-05-19T09:35:21.219Z,2.77
2019-05-19T09:37:48.210Z,2.37
2019-05-19T09:40:15.952Z,2.70
2019-05-19T09:42:43.058Z,3.00
2019-05-19T09:45:10.800Z,2.92
2019-05-19T09:47:39.299Z,3.40
2019-05-19T09:50:07.295Z,3.12
2019-05-19T09:52:34.331Z,3.25
2019-05-19T09:55:02.039Z,3.12
2019-05-19T09:57:29.706Z,2.98
2019-05-19T09:59:57.244Z,3.00
2019-05-19T10:02:24.366Z,3.17
2019-05-19T10:04:51.333Z,3.30
2019-05-19T10:07:18.444Z,3.62
2019-05-19T10:09:57.097Z,3.62
2019-05-19T10:12:24.529Z,4.40
2019-05-19T10:14:52.030Z,3.98
2019-05-19T10:17:19.354Z,4.47
2019-05-19T10:19:46.834Z,4.45
2019-05-19T10:22:14.223Z,4.90
2019-05-19T10:24:56.354Z,4.15
2019-05-19T10:27:10.953Z,4.10
2019-05-19T10:29:38.215Z,4.60
2019-05-19T10:32:05.420Z,4.72
2019-05-19T10:34:32.807Z,4.72
2019-05-19T10:37:00.099Z,4.50
2019-05-19T10:39:27.043Z,4.20
2019-05-19T10:41:54.223Z,3.65
2019-05-19T10:44:21.450Z,3.55
2019-05-19T10:46:48.510Z,3.77
2019-05-19T10:49:15.414Z,3.85
2019-05-19T10:51:42.953Z,3.98
2019-05-19T10:54:09.949Z,4.25
2019-05-19T10:56:36.862Z,4.67
2019-05-19T10:59:04.187Z,4.50
2019-05-19T11:01:31.236Z,3.90
2019-05-19T11:03:58.498Z,4.00
2019-05-19T11:06:25.614Z,3.85
2019-05-19T11:08:52.634Z,3.87
2019-05-19T11:11:19.849Z,3.52
2019-05-19T11:13:46.968Z,3.33
2019-05-19T11:16:14.215Z,4.10
2019-05-19T11:18:41.962Z,3.90
2019-05-19T11:21:09.028Z,4.12
2019-05-19T11:23:36.039Z,4.25
2019-05-19T11:26:03.353Z,5.08
2019-05-19T11:28:30.476Z,5.30
2019-05-19T11:30:57.499Z,5.08
2019-05-19T11:33:24.450Z,5.90
2019-05-19T11:35:51.447Z,5.55
2019-05-19T11:38:18.567Z,5.80
2019-05-19T11:40:45.787Z,5.53
2019-05-19T11:43:12.704Z,5.80
2019-05-19T11:45:40.043Z,6.28
2019-05-19T11:48:07.088Z,6.62
2019-05-19T11:50:34.076Z,4.97
2019-05-19T11:53:01.037Z,4.10
2019-05-19T11:55:27.944Z,3.20
2019-05-19T11:57:55.195Z,3.08
2019-05-19T12:00:22.342Z,2.40
2019-05-19T12:02:49.539Z,2.83
2019-05-19T12:05:17.665Z,3.00
2019-05-19T12:07:44.627Z,2.70
2019-05-19T12:10:12.092Z,2.87
2019-05-19T12:12:39.486Z,2.52
2019-05-19T12:15:07.597Z,2.52
2019-05-19T12:17:34.665Z,2.85
2019-05-19T12:20:02.231Z,3.02
2019-05-19T12:22:29.023Z,3.15
2019-05-19T12:24:56.487Z,3.05
2019-05-19T12:27:23.759Z,2.90
2019-05-19T12:29:50.772Z,2.90
2019-05-19T12:32:17.976Z,3.00
2019-05-19T12:34:44.887Z,2.90
2019-05-19T12:37:12.035Z,2.85
2019-05-19T12:39:39.090Z,3.00
2019-05-19T12:42:06.739Z,2.80
2019-05-19T12:44:33.755Z,2.80
2019-05-19T12:47:00.945Z,3.15
2019-05-19T12:49:28.055Z,2.72
2019-05-19T12:51:55.126Z,2.95
2019-05-19T12:54:22.182Z,3.77
2019-05-19T12:56:49.315Z,4.28
2019-05-19T12:59:16.275Z,2.58
2019-05-19T13:01:43.416Z,2.33
2019-05-19T13:04:10.864Z,3.27
2019-05-19T13:06:37.977Z,3.47
2019-05-19T13:09:05.392Z,2.67
2019-05-19T13:11:32.414Z,2.70
2019-05-19T13:13:59.348Z,3.15
2019-05-19T13:16:26.297Z,3.33
2019-05-19T13:18:53.531Z,3.22
2019-05-19T13:21:20.752Z,3.45
2019-05-19T13:23:48.091Z,3.40
2019-05-19T13:26:15.127Z,3.55
2019-05-19T13:28:42.068Z,3.67
2019-05-19T13:31:09.079Z,3.37
2019-05-19T13:33:36.048Z,3.40
2019-05-19T13:36:03.276Z,3.25
2019-05-19T13:38:30.490Z,4.45
2019-05-19T13:40:57.496Z,3.22
2019-05-19T13:43:26.240Z,3.12
2019-05-19T13:45:54.008Z,2.87
2019-05-19T13:48:21.111Z,3.70
2019-05-19T13:50:48.135Z,3.35
2019-05-19T13:53:15.119Z,3.10
2019-05-19T13:55:42.219Z,2.70
2019-05-19T13:58:09.651Z,3.10
2019-05-19T14:00:36.785Z,3.02
2019-05-19T14:03:04.038Z,2.90
2019-05-19T14:05:31.033Z,3.12
2019-05-19T14:07:58.225Z,3.10
2019-05-19T14:10:25.316Z,2.90
2019-05-19T14:12:52.295Z,2.40
2019-05-19T14:15:19.588Z,2.50
2019-05-19T14:17:46.886Z,2.65
2019-05-19T14:20:14.588Z,2.60
2019-05-19T14:22:41.623Z,2.50
2019-05-19T14:25:09.765Z,2.62
2019-05-19T14:27:36.894Z,2.87
2019-05-19T14:30:06.060Z,3.15
2019-05-19T14:32:33.763Z,3.40
2019-05-19T14:35:00.736Z,3.40
2019-05-19T14:37:27.918Z,3.10
2019-05-19T14:39:54.946Z,3.00
2019-05-19T14:42:41.994Z,3.22
2019-05-19T14:45:10.215Z,2.92
2019-05-19T14:47:56.364Z,3.35
2019-05-19T14:50:24.536Z,3.35
2019-05-19T14:52:51.891Z,3.92
2019-05-19T14:55:19.317Z,2.95
2019-05-19T14:57:46.458Z,3.80
2019-05-19T15:00:16.696Z,3.10
2019-05-19T15:02:43.998Z,3.27
2019-05-19T15:05:11.963Z,3.67
2019-05-19T15:07:38.972Z,3.42
2019-05-19T15:10:07.204Z,3.30
2019-05-19T15:12:34.508Z,3.33
2019-05-19T15:15:04.071Z,3.33
2019-05-19T15:17:31.250Z,3.72
2019-05-19T15:19:58.706Z,3.77
2019-05-19T15:22:25.609Z,4.25
2019-05-19T15:24:52.954Z,3.85
2019-05-19T15:27:19.960Z,4.20
2019-05-19T15:29:47.149Z,15.20
2019-05-19T15:32:14.326Z,11.48
2019-05-19T15:34:41.606Z,8.85
2019-05-19T15:37:08.527Z,9.83
2019-05-19T15:39:35.914Z,9.15
2019-05-19T15:42:03.351Z,12.70
2019-05-19T15:44:30.435Z,9.55
2019-05-19T15:46:57.762Z,7.00
2019-05-19T15:49:24.777Z,5.55
2019-05-19T15:52:02.122Z,4.92
2019-05-19T15:54:20.591Z,12.82
2019-05-19T15:56:48.111Z,4.67
2019-05-19T15:59:15.516Z,3.40
2019-05-19T16:01:42.560Z,3.65
2019-05-19T16:04:09.631Z,4.15
2019-05-19T16:06:39.033Z,4.47
2019-05-19T16:09:06.378Z,3.70
2019-05-19T16:11:33.662Z,17.35
2019-05-19T16:14:00.656Z,37.78
2019-05-19T16:16:27.655Z,12.40
2019-05-19T16:18:54.952Z,5.95
2019-05-19T16:21:22.145Z,4.75
2019-05-19T16:23:49.422Z,4.33
2019-05-19T16:26:16.740Z,4.47
2019-05-19T16:28:43.602Z,4.67
2019-05-19T16:31:10.815Z,4.35
2019-05-19T16:33:37.883Z,4.30
2019-05-19T16:36:07.762Z,4.60
2019-05-19T16:38:33.981Z,4.28
2019-05-19T16:41:00.792Z,5.60
2019-05-19T16:43:27.654Z,5.22
2019-05-19T16:45:54.850Z,5.65
2019-05-19T16:48:23.485Z,5.90
2019-05-19T16:50:51.007Z,11.30
2019-05-19T16:53:18.019Z,36.60
2019-05-19T16:55:46.325Z,10.13
2019-05-19T16:58:21.051Z,5.60
2019-05-19T17:00:43.124Z,6.72
2019-05-19T17:03:10.026Z,10.48
2019-05-19T17:05:37.093Z,10.65
2019-05-19T17:08:04.303Z,8.95
2019-05-19T17:10:31.483Z,9.23
2019-05-19T17:12:58.892Z,9.93
2019-05-19T17:15:26.156Z,10.65
2019-05-19T17:17:53.269Z,7.50
2019-05-19T17:20:20.598Z,12.82
2019-05-19T17:22:47.507Z,15.95
2019-05-19T17:25:14.827Z,23.30
2019-05-19T17:27:41.820Z,161.77
2019-05-19T17:30:10.096Z,46.92
2019-05-19T17:32:37.402Z,33.95
2019-05-19T17:35:05.235Z,13.98
2019-05-19T17:37:32.176Z,9.93
2019-05-19T17:39:59.248Z,14.47
2019-05-19T17:42:26.420Z,19.87
2019-05-19T17:44:53.632Z,14.43
2019-05-19T17:47:21.186Z,8.98
2019-05-19T17:49:48.471Z,8.03
2019-05-19T17:52:15.986Z,7.53
2019-05-19T17:54:43.317Z,7.45
2019-05-19T17:57:10.664Z,8.08
2019-05-19T17:59:42.070Z,9.55
2019-05-19T18:02:08.996Z,9.88
2019-05-19T18:04:36.288Z,8.65
2019-05-19T18:07:03.799Z,8.68
2019-05-19T18:09:30.835Z,9.25
2019-05-19T18:11:57.648Z,9.90
2019-05-19T18:14:24.696Z,10.80
2019-05-19T18:16:51.623Z,21.55
2019-05-19T18:19:18.738Z,19.27
2019-05-19T18:21:46.121Z,15.40
2019-05-19T18:24:13.425Z,16.82
2019-05-19T18:26:40.776Z,11.97
2019-05-19T18:29:07.853Z,10.85
2019-05-19T18:31:34.963Z,9.90
2019-05-19T18:34:02.006Z,9.08
2019-05-19T18:36:29.156Z,7.15
2019-05-19T18:38:56.165Z,6.50
2019-05-19T18:41:23.444Z,6.17
2019-05-19T18:43:50.776Z,10.40
2019-05-19T18:46:18.223Z,13.10
2019-05-19T18:48:45.461Z,10.70
2019-05-19T18:51:12.849Z,11.30
2019-05-19T18:53:40.106Z,13.32
2019-05-19T18:56:07.154Z,20.97
2019-05-19T18:58:34.809Z,26.07
2019-05-19T19:01:02.358Z,27.25
2019-05-19T19:03:29.533Z,38.25
2019-05-19T19:05:56.467Z,41.53
2019-05-19T19:08:23.602Z,23.05
2019-05-19T19:10:50.669Z,17.67
2019-05-19T19:13:17.964Z,13.45
2019-05-19T19:15:45.064Z,14.53
2019-05-19T19:18:11.983Z,14.95
2019-05-19T19:20:39.286Z,14.65
2019-05-19T19:23:06.522Z,10.75
2019-05-19T19:25:33.822Z,8.93
2019-05-19T19:28:01.068Z,8.43
2019-05-19T19:30:28.067Z,10.45
2019-05-19T19:32:55.407Z,10.28
2019-05-19T19:35:22.541Z,11.80
2019-05-19T19:37:49.690Z,14.05
2019-05-19T19:40:28.210Z,14.10
2019-05-19T19:42:57.179Z,12.70
2019-05-19T19:45:24.526Z,11.20
2019-05-19T19:47:51.768Z,10.53
2019-05-19T19:50:19.092Z,9.68
2019-05-19T19:52:46.441Z,7.62
2019-05-19T19:55:13.471Z,8.08
2019-05-19T19:57:40.771Z,7.90
2019-05-19T20:00:17.905Z,7.65
2019-05-19T20:02:37.199Z,8.23
2019-05-19T20:05:04.857Z,7.50
2019-05-19T20:07:31.970Z,6.50
2019-05-19T20:10:00.062Z,5.72
2019-05-19T20:12:27.276Z,5.25
2019-05-19T20:14:54.621Z,4.70
2019-05-19T20:17:21.964Z,5.17
2019-05-19T20:19:49.138Z,6.03
2019-05-19T20:22:16.184Z,5.97
2019-05-19T20:24:43.413Z,6.45
2019-05-19T20:27:10.676Z,5.35
2019-05-19T20:29:38.162Z,5.58
2019-05-19T20:32:05.125Z,5.30
2019-05-19T20:34:32.497Z,6.05
2019-05-19T20:36:59.514Z,11.35
2019-05-19T20:39:26.645Z,18.23
2019-05-19T20:41:53.825Z,22.73
2019-05-19T20:44:20.850Z,23.50
2019-05-19T20:46:48.541Z,25.60
2019-05-19T20:49:15.792Z,26.45
2019-05-19T20:51:42.933Z,23.85
2019-05-19T20:54:10.242Z,22.30
2019-05-19T20:56:37.375Z,21.17
2019-05-19T20:59:04.383Z,19.42
2019-05-19T21:01:31.536Z,21.82
2019-05-19T21:03:58.629Z,22.90
2019-05-19T21:06:25.939Z,26.00
2019-05-19T21:08:53.105Z,24.15
2019-05-19T21:11:20.355Z,23.25
2019-05-19T21:13:47.456Z,23.57
2019-05-19T21:16:14.521Z,23.87
2019-05-19T21:18:41.523Z,23.38
2019-05-19T21:21:08.681Z,24.47
2019-05-19T21:23:36.047Z,25.50
2019-05-19T21:26:03.275Z,24.50
2019-05-19T21:28:30.542Z,25.82
2019-05-19T21:31:05.269Z,25.35
2019-05-19T21:33:26.491Z,23.22
2019-05-19T21:35:53.796Z,22.90
2019-05-19T21:38:21.141Z,22.77
2019-05-19T21:40:47.930Z,23.62
2019-05-19T21:43:15.105Z,24.27
2019-05-19T21:45:42.319Z,25.48
2019-05-19T21:48:09.450Z,25.08
2019-05-19T21:50:36.429Z,26.35
2019-05-19T21:53:06.380Z,24.23
2019-05-19T21:55:32.310Z,23.02
2019-05-19T21:57:59.243Z,23.00
2019-05-19T22:00:28.457Z,22.82
2019-05-19T22:02:55.662Z,22.35
2019-05-19T22:05:23.154Z,23.22
2019-05-19T22:07:59.068Z,24.05
2019-05-19T22:10:26.511Z,23.30
2019-05-19T22:12:53.324Z,24.82
2019-05-19T22:15:20.881Z,22.62
2019-05-19T22:17:47.968Z,22.27
2019-05-19T22:20:15.132Z,23.02
2019-05-19T22:22:42.310Z,22.62
2019-05-19T22:25:09.570Z,24.20
2019-05-19T22:27:36.653Z,24.85
2019-05-19T22:30:05.272Z,25.10
2019-05-19T22:32:32.337Z,25.50
2019-05-19T22:34:59.375Z,24.60
2019-05-19T22:37:26.277Z,23.90
2019-05-19T22:39:53.615Z,23.07
2019-05-19T22:42:20.960Z,24.55
2019-05-19T22:44:48.193Z,21.42
2019-05-19T22:47:15.256Z,22.32
2019-05-19T22:49:42.268Z,21.97
2019-05-19T22:52:09.435Z,21.77
2019-05-19T22:54:36.714Z,21.35
2019-05-19T22:57:04.172Z,21.05
2019-05-19T22:59:31.927Z,21.20
2019-05-19T23:01:58.887Z,20.90
2019-05-19T23:04:26.749Z,20.37
2019-05-19T23:06:53.798Z,20.80
2019-05-19T23:09:21.132Z,22.20
2019-05-19T23:11:48.128Z,22.25
2019-05-19T23:14:17.861Z,21.65
2019-05-19T23:16:47.026Z,19.75
2019-05-19T23:19:14.179Z,20.92
2019-05-19T23:21:41.562Z,18.90
2019-05-19T23:24:08.720Z,18.67
2019-05-19T23:26:35.726Z,18.65
2019-05-19T23:29:03.159Z,20.40
2019-05-19T23:31:31.293Z,19.82
2019-05-19T23:33:58.504Z,20.57
2019-05-19T23:36:25.778Z,19.62
2019-05-19T23:38:52.876Z,17.65
2019-05-19T23:41:19.835Z,16.50
2019-05-19T23:43:46.745Z,17.07
2019-05-19T23:46:13.650Z,16.57
2019-05-19T23:48:40.635Z,17.00
2019-05-19T23:51:07.717Z,15.83
2019-05-19T23:53:34.822Z,14.50
2019-05-19T23:56:02.104Z,14.70
2019-05-19T23:58:29.189Z,14.75
